createdAt,value
2019-03-20T00:01:23.569Z,5.17
2019-03-20T00:03:53.946Z,7.60
2019-03-20T00:06:23.533Z,8.77
2019-03-20T00:08:53.829Z,4.47
2019-03-20T00:11:24.146Z,7.73
2019-03-20T00:14:05.338Z,4.23
2019-03-20T00:16:37.836Z,6.47
2019-03-20T00:19:11.979Z,7.03
2019-03-20T00:21:42.480Z,7.87
2019-03-20T00:24:14.801Z,6.20
2019-03-20T00:26:48.112Z,7.10
2019-03-20T00:29:17.849Z,6.20
2019-03-20T00:31:47.141Z,5.50
2019-03-20T00:37:50.497Z,3.70
2019-03-20T00:40:19.993Z,8.53
2019-03-20T00:42:50.005Z,8.27
2019-03-20T00:45:50.023Z,5.23
2019-03-20T00:48:19.405Z,4.20
2019-03-20T00:50:48.818Z,5.37
2019-03-20T00:53:20.530Z,6.17
2019-03-20T00:55:53.913Z,7.03
2019-03-20T00:58:23.792Z,8.37
2019-03-20T01:00:55.643Z,4.93
2019-03-20T01:03:56.274Z,6.60
2019-03-20T01:06:26.989Z,6.97
2019-03-20T01:09:01.121Z,7.03
2019-03-20T01:11:31.596Z,7.57
2019-03-20T01:17:44.866Z,8.13
2019-03-20T01:20:15.725Z,10.97
2019-03-20T01:22:45.352Z,7.53
2019-03-20T01:25:15.562Z,10.63
2019-03-20T01:27:44.769Z,8.07
2019-03-20T01:30:33.829Z,8.33
2019-03-20T01:33:05.916Z,6.53
2019-03-20T01:35:37.813Z,6.40
2019-03-20T01:38:07.605Z,7.80
2019-03-20T01:40:36.891Z,7.37
2019-03-20T01:43:06.669Z,6.67
2019-03-20T01:45:52.269Z,7.27
2019-03-20T01:48:31.406Z,9.97
2019-03-20T01:51:20.855Z,11.27
2019-03-20T01:53:52.021Z,6.33
2019-03-20T01:56:21.955Z,9.63
2019-03-20T01:58:51.790Z,10.43
2019-03-20T02:01:20.713Z,9.90
2019-03-20T02:03:50.362Z,10.83
2019-03-20T02:06:21.085Z,6.70
2019-03-20T02:08:51.450Z,8.20
2019-03-20T02:11:21.571Z,10.47
2019-03-20T02:13:51.464Z,10.30
2019-03-20T02:16:20.803Z,9.20
2019-03-20T02:18:49.741Z,9.97
2019-03-20T02:21:18.688Z,7.73
2019-03-20T02:23:47.775Z,8.90
2019-03-20T02:26:19.717Z,9.73
2019-03-20T02:28:50.238Z,9.77
2019-03-20T02:31:19.146Z,8.17
2019-03-20T02:33:49.907Z,9.80
2019-03-20T02:36:21.809Z,10.00
2019-03-20T02:38:51.191Z,9.13
2019-03-20T02:41:30.843Z,8.63
2019-03-20T02:44:00.485Z,6.50
2019-03-20T02:46:30.393Z,8.37
2019-03-20T02:49:01.203Z,8.60
2019-03-20T02:51:30.169Z,7.67
2019-03-20T02:53:59.451Z,6.60
2019-03-20T02:56:28.457Z,5.63
2019-03-20T02:58:58.061Z,8.17
2019-03-20T03:01:28.566Z,9.80
2019-03-20T03:03:58.478Z,5.13
2019-03-20T03:06:29.718Z,9.97
2019-03-20T03:09:01.395Z,5.50
2019-03-20T03:11:31.126Z,7.37
2019-03-20T03:14:16.814Z,6.40
2019-03-20T03:16:46.570Z,6.80
2019-03-20T03:19:18.675Z,9.13
2019-03-20T03:21:56.146Z,6.47
2019-03-20T03:24:25.496Z,6.60
2019-03-20T03:26:55.761Z,9.50
2019-03-20T03:29:32.545Z,6.20
2019-03-20T03:32:02.473Z,6.73
2019-03-20T03:34:32.832Z,7.47
2019-03-20T03:37:03.403Z,7.23
2019-03-20T03:39:32.460Z,6.13
2019-03-20T03:42:01.806Z,7.43
2019-03-20T03:44:32.014Z,7.40
2019-03-20T03:47:04.253Z,8.23
2019-03-20T03:49:36.269Z,8.63
2019-03-20T03:52:06.208Z,6.57
2019-03-20T03:54:35.234Z,11.07
2019-03-20T03:57:07.244Z,4.47
2019-03-20T03:59:37.256Z,7.87
2019-03-20T04:02:07.158Z,6.43
2019-03-20T04:04:36.726Z,7.77
2019-03-20T04:07:05.697Z,5.97
2019-03-20T04:09:35.559Z,8.80
2019-03-20T04:12:06.956Z,7.97
2019-03-20T04:14:42.287Z,10.07
2019-03-20T04:17:28.175Z,10.07
2019-03-20T04:19:58.213Z,6.93
2019-03-20T04:22:27.916Z,6.90
2019-03-20T04:24:57.143Z,5.40
2019-03-20T04:27:26.854Z,6.03
2019-03-20T04:29:56.981Z,9.47
2019-03-20T04:32:27.014Z,6.90
2019-03-20T04:34:59.370Z,10.57
2019-03-20T04:37:29.545Z,8.87
2019-03-20T04:40:04.743Z,7.90
2019-03-20T04:42:34.026Z,7.43
2019-03-20T04:45:06.733Z,6.00
2019-03-20T04:47:38.245Z,8.70
2019-03-20T04:50:12.875Z,8.00
2019-03-20T04:52:42.658Z,8.50
2019-03-20T04:55:42.350Z,12.33
2019-03-20T04:58:13.274Z,8.10
2019-03-20T05:00:42.698Z,9.30
2019-03-20T05:03:14.395Z,5.77
2019-03-20T05:05:44.352Z,6.90
2019-03-20T05:08:14.986Z,7.77
2019-03-20T05:10:45.195Z,11.77
2019-03-20T05:13:14.492Z,7.67
2019-03-20T05:15:44.045Z,6.33
2019-03-20T05:18:14.441Z,6.57
2019-03-20T05:20:47.499Z,9.20
2019-03-20T05:23:17.071Z,12.53
2019-03-20T05:25:47.904Z,7.20
2019-03-20T05:28:17.368Z,7.07
2019-03-20T05:30:48.376Z,6.60
2019-03-20T05:33:18.428Z,5.67
2019-03-20T05:35:47.882Z,6.47
2019-03-20T05:38:17.868Z,10.27
2019-03-20T05:40:49.554Z,6.23
2019-03-20T05:43:21.652Z,12.33
2019-03-20T05:45:53.740Z,10.13
2019-03-20T05:48:35.045Z,10.30
2019-03-20T05:51:31.276Z,8.20
2019-03-20T05:54:53.021Z,10.20
2019-03-20T05:57:25.087Z,9.03
2019-03-20T06:00:00.541Z,8.60
2019-03-20T06:02:31.607Z,7.80
2019-03-20T06:05:06.107Z,10.03
2019-03-20T06:07:43.997Z,10.60
2019-03-20T06:10:15.023Z,6.10
2019-03-20T06:12:45.977Z,7.97
2019-03-20T06:15:21.018Z,10.70
2019-03-20T06:17:54.715Z,7.33
2019-03-20T06:20:30.545Z,6.87
2019-03-20T06:23:04.776Z,7.43
2019-03-20T06:29:09.978Z,8.67
2019-03-20T06:31:52.297Z,8.33
2019-03-20T06:34:42.743Z,5.40
2019-03-20T06:37:15.893Z,9.47
2019-03-20T06:39:46.745Z,8.53
2019-03-20T06:42:19.152Z,8.67
2019-03-20T06:44:51.525Z,7.90
2019-03-20T06:47:29.214Z,9.73
2019-03-20T06:50:14.904Z,8.33
2019-03-20T06:53:18.351Z,8.23
2019-03-20T06:55:52.151Z,8.37
2019-03-20T06:58:32.605Z,10.77
2019-03-20T07:01:30.692Z,8.13
2019-03-20T07:04:41.498Z,7.37
2019-03-20T07:07:43.629Z,9.43
2019-03-20T07:10:43.465Z,13.17
2019-03-20T07:13:13.854Z,6.20
2019-03-20T07:19:13.064Z,7.37
2019-03-20T07:21:42.222Z,12.10
2019-03-20T07:24:26.864Z,9.30
2019-03-20T07:27:00.051Z,6.73
2019-03-20T07:29:29.158Z,7.83
2019-03-20T07:31:58.149Z,6.13
2019-03-20T07:34:40.107Z,9.00
2019-03-20T07:37:14.771Z,9.63
2019-03-20T07:39:47.664Z,9.97
2019-03-20T07:42:20.113Z,7.43
2019-03-20T07:44:55.009Z,11.37
2019-03-20T07:47:27.991Z,8.63
2019-03-20T07:49:58.269Z,11.40
2019-03-20T07:52:32.283Z,8.43
2019-03-20T07:55:07.861Z,8.93
2019-03-20T07:58:02.708Z,8.80
2019-03-20T08:00:33.842Z,12.87
2019-03-20T08:03:03.866Z,8.10
2019-03-20T08:05:35.446Z,7.97
2019-03-20T08:08:07.459Z,8.33
2019-03-20T08:10:38.520Z,9.93
2019-03-20T08:13:07.550Z,12.60
2019-03-20T08:16:06.379Z,11.33
2019-03-20T08:18:36.206Z,9.93
2019-03-20T08:21:07.597Z,9.10
2019-03-20T08:23:43.574Z,11.33
2019-03-20T08:26:53.111Z,10.27
2019-03-20T08:29:26.479Z,11.43
2019-03-20T08:32:00.570Z,10.63
2019-03-20T08:34:31.576Z,7.67
2019-03-20T08:37:03.983Z,10.97
2019-03-20T08:39:35.599Z,10.67
2019-03-20T08:42:10.389Z,16.00
2019-03-20T08:47:58.366Z,15.23
2019-03-20T08:50:46.227Z,11.33
2019-03-20T08:53:18.686Z,11.93
2019-03-20T08:55:50.522Z,10.93
2019-03-20T08:58:24.637Z,13.27
2019-03-20T09:00:54.983Z,18.33
2019-03-20T09:03:42.649Z,16.97
2019-03-20T09:06:21.543Z,18.03
2019-03-20T09:08:56.141Z,15.10
2019-03-20T09:11:28.183Z,19.17
2019-03-20T09:14:32.721Z,15.20
2019-03-20T09:17:02.965Z,24.20
2019-03-20T09:19:42.484Z,27.03
2019-03-20T09:22:30.624Z,17.30
2019-03-20T09:25:43.273Z,21.23
2019-03-20T09:28:13.930Z,18.83
2019-03-20T09:30:55.480Z,16.93
2019-03-20T09:33:26.506Z,21.60
2019-03-20T09:36:05.726Z,15.87
2019-03-20T09:38:44.779Z,19.03
2019-03-20T09:41:07.618Z,17.40
2019-03-20T09:43:44.219Z,19.17
2019-03-20T09:46:14.889Z,20.43
2019-03-20T09:48:45.354Z,22.33
2019-03-20T09:51:16.725Z,21.87
2019-03-20T09:53:46.566Z,23.87
2019-03-20T09:56:19.571Z,19.90
2019-03-20T09:59:10.340Z,21.20
2019-03-20T10:01:42.296Z,20.30
2019-03-20T10:04:12.744Z,19.70
2019-03-20T10:06:58.466Z,24.00
2019-03-20T10:09:43.674Z,24.30
2019-03-20T10:12:13.669Z,22.27
2019-03-20T10:14:43.464Z,21.90
2019-03-20T10:17:13.418Z,20.37
2019-03-20T10:19:45.133Z,21.77
2019-03-20T10:22:16.918Z,23.63
2019-03-20T10:25:03.941Z,22.60
2019-03-20T10:27:42.546Z,21.40
2019-03-20T10:30:15.897Z,21.07
2019-03-20T10:33:06.281Z,21.13
2019-03-20T10:35:50.475Z,23.13
2019-03-20T10:38:20.849Z,20.10
2019-03-20T10:40:51.771Z,20.30
2019-03-20T10:43:35.915Z,24.97
2019-03-20T10:46:21.897Z,20.03
2019-03-20T10:48:56.456Z,22.37
2019-03-20T10:51:44.889Z,24.60
2019-03-20T10:54:20.005Z,26.40
2019-03-20T10:57:10.640Z,26.17
2019-03-20T10:59:55.410Z,24.83
2019-03-20T11:02:30.892Z,25.33
2019-03-20T11:05:30.092Z,24.57
2019-03-20T11:08:02.247Z,26.13
2019-03-20T11:10:41.541Z,26.30
2019-03-20T11:16:44.307Z,25.40
2019-03-20T11:19:23.299Z,35.03
2019-03-20T11:22:19.056Z,28.23
2019-03-20T11:25:01.104Z,27.73
2019-03-20T11:40:53.234Z,30.57
2019-03-20T11:55:30.581Z,35.90
2019-03-20T11:59:03.846Z,32.73
2019-03-20T12:05:10.123Z,32.27
2019-03-20T12:07:51.411Z,32.97
2019-03-20T12:10:26.158Z,31.70
2019-03-20T12:13:23.269Z,32.67
2019-03-20T13:37:46.031Z,34.90
2019-03-20T13:45:25.432Z,39.90
2019-03-20T13:50:52.694Z,37.73
2019-03-20T13:53:57.991Z,41.03
2019-03-20T13:56:57.555Z,34.37
2019-03-20T14:06:46.206Z,35.87
2019-03-20T14:24:08.901Z,42.63
2019-03-20T14:27:12.129Z,40.43
2019-03-20T14:41:29.206Z,43.00
2019-03-20T14:48:08.803Z,43.27
2019-03-20T14:51:08.195Z,44.70
2019-03-20T15:01:13.086Z,45.33
2019-03-20T15:04:04.487Z,50.40
2019-03-20T15:06:36.362Z,45.17
2019-03-20T15:09:49.309Z,45.40
2019-03-20T15:12:47.790Z,43.30
2019-03-20T15:15:44.853Z,50.13
2019-03-20T15:18:43.104Z,45.03
2019-03-20T15:21:28.450Z,42.80
2019-03-20T15:24:44.196Z,43.60
2019-03-20T15:28:12.420Z,47.37
2019-03-20T15:31:39.949Z,42.60
2019-03-20T15:38:00.277Z,42.43
2019-03-20T15:47:12.630Z,42.13
2019-03-20T15:50:09.301Z,43.80
2019-03-20T15:53:17.442Z,39.00
2019-03-20T15:55:56.659Z,45.83
2019-03-20T15:59:23.993Z,43.60
2019-03-20T16:05:59.748Z,40.90
2019-03-20T16:08:46.259Z,44.13
2019-03-20T16:11:39.435Z,34.80
2019-03-20T16:14:35.291Z,39.13
2019-03-20T16:17:14.287Z,35.57
2019-03-20T16:19:47.774Z,33.00
2019-03-20T16:22:38.819Z,34.40
2019-03-20T16:25:21.282Z,31.80
2019-03-20T16:28:02.849Z,30.30
2019-03-20T16:30:36.082Z,31.13
2019-03-20T16:33:07.754Z,32.37
2019-03-20T16:35:48.456Z,32.63
2019-03-20T16:38:22.611Z,29.87
2019-03-20T16:40:53.725Z,31.43
2019-03-20T16:43:26.700Z,39.87
2019-03-20T16:46:12.002Z,35.60
2019-03-20T16:48:53.422Z,39.33
2019-03-20T16:51:26.986Z,39.63
2019-03-20T16:54:13.544Z,39.97
2019-03-20T16:56:44.384Z,43.47
2019-03-20T16:59:20.868Z,37.23
2019-03-20T17:01:50.461Z,36.70
2019-03-20T17:04:24.046Z,34.73
2019-03-20T17:06:58.105Z,33.37
2019-03-20T17:12:33.570Z,28.97
2019-03-20T17:15:33.898Z,25.87
2019-03-20T17:18:08.041Z,29.07
2019-03-20T17:20:51.458Z,30.60
2019-03-20T17:30:39.035Z,26.53
2019-03-20T17:33:42.799Z,23.57
2019-03-20T17:39:22.061Z,24.43
2019-03-20T17:41:55.600Z,25.63
2019-03-20T17:44:25.598Z,25.17
2019-03-20T17:46:57.828Z,23.20
2019-03-20T17:49:31.625Z,22.97
2019-03-20T17:52:02.521Z,22.30
2019-03-20T17:54:32.029Z,17.30
2019-03-20T17:57:01.098Z,45.40
2019-03-20T17:59:34.399Z,75.43
2019-03-20T18:02:05.705Z,19.90
2019-03-20T18:04:35.368Z,19.70
2019-03-20T18:07:05.859Z,20.33
2019-03-20T18:09:35.562Z,19.27
2019-03-20T18:12:24.498Z,21.30
2019-03-20T18:14:56.637Z,17.93
2019-03-20T18:17:27.714Z,17.50
2019-03-20T18:20:03.555Z,16.83
2019-03-20T18:22:32.791Z,18.80
2019-03-20T18:31:32.950Z,25.33
2019-03-20T18:34:11.185Z,16.77
2019-03-20T18:36:42.059Z,18.13
2019-03-20T18:39:14.509Z,20.43
2019-03-20T18:41:57.390Z,28.20
2019-03-20T18:44:20.034Z,24.13
2019-03-20T18:46:58.674Z,22.13
2019-03-20T18:49:29.109Z,19.77
2019-03-20T18:51:58.312Z,21.67
2019-03-20T18:54:31.023Z,18.33
2019-03-20T18:57:00.433Z,23.70
2019-03-20T18:59:30.779Z,20.60
2019-03-20T19:02:00.498Z,18.70
2019-03-20T19:04:30.621Z,25.47
2019-03-20T19:07:00.687Z,16.83
2019-03-20T19:09:30.127Z,18.93
2019-03-20T19:12:08.147Z,20.50
2019-03-20T19:14:32.269Z,19.47
2019-03-20T19:17:01.281Z,19.23
2019-03-20T19:19:30.360Z,18.27
2019-03-20T19:22:00.064Z,17.40
2019-03-20T19:24:39.238Z,19.97
2019-03-20T19:27:08.826Z,20.90
2019-03-20T19:29:38.518Z,19.47
2019-03-20T19:32:13.010Z,17.33
2019-03-20T19:34:50.691Z,17.97
2019-03-20T19:37:20.269Z,18.07
2019-03-20T19:39:52.472Z,20.37
2019-03-20T19:42:23.237Z,19.80
2019-03-20T19:44:55.939Z,23.53
2019-03-20T19:47:26.461Z,18.90
2019-03-20T19:49:55.477Z,19.60
2019-03-20T19:52:27.541Z,15.00
2019-03-20T19:54:59.559Z,16.37
2019-03-20T19:57:30.682Z,17.50
2019-03-20T20:00:04.497Z,16.83
2019-03-20T20:02:34.078Z,17.73
2019-03-20T20:05:15.016Z,14.80
2019-03-20T20:07:37.859Z,19.10
2019-03-20T20:10:10.939Z,16.50
2019-03-20T20:12:45.151Z,21.47
2019-03-20T20:15:25.335Z,16.00
2019-03-20T20:17:56.013Z,19.27
2019-03-20T20:20:25.154Z,20.80
2019-03-20T20:22:54.530Z,15.07
2019-03-20T20:25:24.210Z,19.17
2019-03-20T20:27:53.273Z,16.10
2019-03-20T20:30:23.140Z,20.50
2019-03-20T20:32:52.413Z,18.23
2019-03-20T20:35:26.039Z,17.80
2019-03-20T20:37:54.788Z,16.80
2019-03-20T20:40:24.011Z,23.97
2019-03-20T20:42:53.226Z,15.27
2019-03-20T20:45:27.413Z,16.77
2019-03-20T20:47:58.153Z,22.97
2019-03-20T20:50:29.138Z,17.50
2019-03-20T20:53:03.017Z,14.53
2019-03-20T20:55:32.362Z,18.70
2019-03-20T20:58:02.215Z,15.53
2019-03-20T21:00:32.433Z,18.80
2019-03-20T21:03:02.373Z,20.03
2019-03-20T21:05:38.758Z,21.33
2019-03-20T21:08:13.340Z,19.57
2019-03-20T21:10:43.328Z,19.90
2019-03-20T21:13:24.303Z,21.20
2019-03-20T21:16:11.934Z,18.57
2019-03-20T21:19:19.926Z,17.90
2019-03-20T21:22:43.930Z,19.07
2019-03-20T21:25:26.014Z,19.83
2019-03-20T21:28:57.559Z,17.90
2019-03-20T21:31:49.518Z,47.43
2019-03-20T21:35:23.745Z,20.60
2019-03-20T21:38:12.935Z,23.33
2019-03-20T21:41:33.621Z,23.67
2019-03-20T21:44:42.632Z,20.67
2019-03-20T21:47:38.597Z,17.50
2019-03-20T21:50:40.654Z,20.80
2019-03-20T21:53:12.317Z,17.30
2019-03-20T21:59:52.395Z,24.83
2019-03-20T22:02:42.761Z,22.13
2019-03-20T22:05:40.308Z,24.37
2019-03-20T22:08:17.547Z,17.50
2019-03-20T22:11:22.468Z,18.37
2019-03-20T22:14:02.310Z,20.10
2019-03-20T22:17:32.356Z,23.53
2019-03-20T22:20:56.289Z,17.17
2019-03-20T22:23:57.366Z,19.00
2019-03-20T22:27:02.078Z,20.23
2019-03-20T22:29:33.493Z,21.53
2019-03-20T22:32:53.315Z,18.47
2019-03-20T22:35:46.710Z,21.67
2019-03-20T22:38:37.779Z,20.37
2019-03-20T22:41:43.426Z,21.87
2019-03-20T22:44:14.284Z,20.10
2019-03-20T22:47:35.052Z,24.30
2019-03-20T22:50:33.500Z,25.20
2019-03-20T22:53:38.109Z,19.27
2019-03-20T22:57:45.222Z,27.60
2019-03-20T22:59:47.374Z,23.90
2019-03-20T23:03:08.632Z,26.47
2019-03-20T23:05:46.515Z,25.73
2019-03-20T23:08:16.270Z,21.03
2019-03-20T23:10:47.678Z,27.13
2019-03-20T23:13:19.149Z,23.47
2019-03-20T23:15:52.771Z,24.57
2019-03-20T23:18:25.186Z,20.13
2019-03-20T23:20:56.360Z,22.03
2019-03-20T23:23:26.152Z,22.67
2019-03-20T23:25:56.731Z,25.07
2019-03-20T23:28:26.946Z,22.67
2019-03-20T23:31:41.036Z,20.20
2019-03-20T23:34:15.806Z,23.47
2019-03-20T23:36:54.697Z,23.80
2019-03-20T23:51:01.722Z,29.30
2019-03-20T23:53:45.634Z,24.97
2019-03-20T23:56:19.995Z,20.10
2019-03-20T23:58:54.228Z,20.77
